createdAt,value
2018-10-11T00:02:50.118Z,100837.52
2018-10-11T00:05:23.660Z,100838.58
2018-10-11T00:07:52.628Z,100836.45
2018-10-11T00:10:21.504Z,100834.73
2018-10-11T00:12:58.758Z,100839.06
2018-10-11T00:15:34.676Z,100840.38
2018-10-11T00:18:03.597Z,100843.13
2018-10-11T00:20:32.515Z,100845.19
2018-10-11T00:23:02.526Z,100842.47
2018-10-11T00:28:32.355Z,100839.41
2018-10-11T00:31:01.274Z,100840.25
2018-10-11T00:33:30.195Z,100843.95
2018-10-11T00:36:03.234Z,100842.08
2018-10-11T00:38:32.134Z,100839.33
2018-10-11T00:41:04.729Z,100843.06
2018-10-11T00:43:34.764Z,100834.97
2018-10-11T00:46:09.092Z,100828.12
2018-10-11T00:48:38.192Z,100825.20
2018-10-11T00:51:08.129Z,100826.19
2018-10-11T00:53:59.701Z,100818.34
2018-10-11T00:56:28.584Z,100821.61
2018-10-11T00:58:57.492Z,100818.42
2018-10-11T01:01:34.015Z,100816.96
2018-10-11T01:04:02.929Z,100806.97
2018-10-11T01:06:31.843Z,100807.33
2018-10-11T01:09:01.774Z,100805.90
2018-10-11T01:11:30.710Z,100794.77
2018-10-11T01:14:01.732Z,100794.23
2018-10-11T01:16:30.758Z,100792.06
2018-10-11T01:18:59.658Z,100793.70
2018-10-11T01:21:28.551Z,100796.80
2018-10-11T01:23:57.475Z,100786.32
2018-10-11T01:26:26.328Z,100794.78
2018-10-11T01:28:55.249Z,100799.69
2018-10-11T01:31:31.843Z,100802.20
2018-10-11T01:34:00.753Z,100804.70
2018-10-11T01:36:33.191Z,100795.43
2018-10-11T01:39:02.110Z,100803.23
2018-10-11T01:41:30.992Z,100790.53
2018-10-11T01:44:00.151Z,100793.31
2018-10-11T01:46:29.091Z,100791.23
2018-10-11T01:48:58.215Z,100792.00
2018-10-11T01:51:27.128Z,100788.25
2018-10-11T01:53:56.026Z,100784.96
2018-10-11T01:56:24.948Z,100776.88
2018-10-11T01:58:53.905Z,100769.15
2018-10-11T02:01:22.782Z,100770.25
2018-10-11T02:03:53.071Z,100767.87
2018-10-11T02:06:21.989Z,100775.52
2018-10-11T02:08:50.877Z,100773.83
2018-10-11T02:11:19.762Z,100770.66
2018-10-11T02:13:48.657Z,100767.50
2018-10-11T02:16:18.675Z,100762.92
2018-10-11T02:18:47.572Z,100763.57
2018-10-11T02:21:35.338Z,100763.63
2018-10-11T02:24:04.258Z,100760.69
2018-10-11T02:26:33.155Z,100743.67
2018-10-11T02:29:06.364Z,100753.19
2018-10-11T02:31:51.591Z,100748.61
2018-10-11T02:34:20.469Z,100751.67
2018-10-11T02:36:49.373Z,100765.05
2018-10-11T02:39:40.902Z,100764.35
2018-10-11T02:42:09.874Z,100767.14
2018-10-11T02:44:38.789Z,100773.46
2018-10-11T02:47:07.766Z,100763.91
2018-10-11T02:49:36.695Z,100760.41
2018-10-11T02:52:05.627Z,100760.00
2018-10-11T02:54:34.501Z,100757.20
2018-10-11T02:57:04.546Z,100762.11
2018-10-11T02:59:35.754Z,100758.45
2018-10-11T03:02:13.312Z,100756.02
2018-10-11T03:04:43.550Z,100754.92
2018-10-11T03:07:13.149Z,100752.67
2018-10-11T03:09:43.361Z,100746.10
2018-10-11T03:12:13.817Z,100744.56
2018-10-11T03:14:49.270Z,100744.27
2018-10-11T03:17:18.895Z,100741.44
2018-10-11T03:20:00.173Z,100741.69
2018-10-11T03:22:29.618Z,100735.72
2018-10-11T03:24:59.131Z,100738.47
2018-10-11T03:27:28.683Z,100732.72
2018-10-11T03:29:58.099Z,100731.43
2018-10-11T03:35:25.241Z,100747.76
2018-10-11T03:37:54.432Z,100753.38
2018-10-11T03:40:28.775Z,100770.31
2018-10-11T03:42:58.825Z,100766.80
2018-10-11T03:45:38.113Z,100762.70
2018-10-11T03:48:10.365Z,100759.92
2018-10-11T03:50:41.311Z,100757.58
2018-10-11T03:53:10.326Z,100756.13
2018-10-11T03:55:39.493Z,100765.16
2018-10-11T03:58:15.007Z,100765.71
2018-10-11T04:00:47.391Z,100766.09
2018-10-11T04:03:16.513Z,100776.70
2018-10-11T04:05:46.479Z,100783.73
2018-10-11T04:08:17.420Z,100771.64
2018-10-11T04:10:46.285Z,100765.92
2018-10-11T04:13:23.390Z,100768.59
2018-10-11T04:15:56.646Z,100763.50
2018-10-11T04:18:26.642Z,100764.82
2018-10-11T04:21:00.643Z,100754.79
2018-10-11T04:23:33.381Z,100752.13
2018-10-11T04:26:02.281Z,100748.50
2018-10-11T04:28:35.839Z,100743.43
2018-10-11T04:31:15.090Z,100746.59
2018-10-11T04:34:02.342Z,100748.56
2018-10-11T04:36:35.889Z,100752.44
2018-10-11T04:39:08.763Z,100751.11
2018-10-11T04:41:44.937Z,100749.55
2018-10-11T04:44:13.829Z,100751.17
2018-10-11T04:46:49.410Z,100749.59
2018-10-11T04:52:18.362Z,100749.41
2018-10-11T04:54:47.313Z,100752.83
2018-10-11T04:57:17.240Z,100748.02
2018-10-11T04:59:58.535Z,100758.13
2018-10-11T05:02:40.153Z,100752.64
2018-10-11T05:05:10.264Z,100750.70
2018-10-11T05:07:39.193Z,100743.74
2018-10-11T05:10:10.465Z,100745.66
2018-10-11T05:12:53.339Z,100754.52
2018-10-11T05:15:25.030Z,100755.72
2018-10-11T05:17:59.302Z,100760.80
2018-10-11T05:20:33.926Z,100769.22
2018-10-11T05:23:04.926Z,100777.61
2018-10-11T05:25:34.942Z,100787.23
2018-10-11T05:28:03.934Z,100792.22
2018-10-11T05:30:34.061Z,100790.61
2018-10-11T05:33:07.098Z,100782.98
2018-10-11T05:35:59.627Z,100776.80
2018-10-11T05:38:35.717Z,100775.52
2018-10-11T05:41:10.435Z,100771.56
2018-10-11T05:43:39.403Z,100773.69
2018-10-11T05:46:20.505Z,100773.84
2018-10-11T05:49:12.315Z,100773.36
2018-10-11T05:51:41.593Z,100768.82
2018-10-11T05:54:10.573Z,100767.47
2018-10-11T05:56:41.802Z,100770.91
2018-10-11T05:59:11.369Z,100775.95
2018-10-11T06:01:41.286Z,100783.36
2018-10-11T06:04:11.246Z,100793.35
2018-10-11T06:06:40.426Z,100793.64
2018-10-11T06:09:14.106Z,100800.81
2018-10-11T06:11:43.617Z,100809.72
2018-10-11T06:14:13.025Z,100814.91
2018-10-11T06:16:41.962Z,100826.30
2018-10-11T06:19:12.259Z,100823.06
2018-10-11T06:21:41.170Z,100821.42
2018-10-11T06:24:13.948Z,100821.64
2018-10-11T06:26:42.849Z,100828.75
2018-10-11T06:29:11.964Z,100830.33
2018-10-11T06:31:51.922Z,100835.52
2018-10-11T06:34:20.831Z,100829.33
2018-10-11T06:36:49.751Z,100827.33
2018-10-11T06:39:18.683Z,100827.33
2018-10-11T06:41:47.648Z,100833.17
2018-10-11T06:47:20.415Z,100850.58
2018-10-11T06:52:49.247Z,100852.58
2018-10-11T06:55:18.274Z,100854.59
2018-10-11T06:57:47.236Z,100863.38
2018-10-11T07:00:16.168Z,100872.61
2018-10-11T07:02:45.075Z,100867.44
2018-10-11T07:05:13.974Z,100869.99
2018-10-11T07:07:42.941Z,100880.42
2018-10-11T07:10:15.293Z,100883.27
2018-10-11T07:12:44.418Z,100880.06
2018-10-11T07:15:14.390Z,100873.92
2018-10-11T07:17:43.382Z,100868.26
2018-10-11T07:20:12.282Z,100883.25
2018-10-11T07:22:41.221Z,100880.87
2018-10-11T07:25:10.454Z,100884.23
2018-10-11T07:27:39.511Z,100892.72
2018-10-11T07:30:08.389Z,100897.42
2018-10-11T07:32:47.370Z,100889.28
2018-10-11T07:35:16.312Z,100898.57
2018-10-11T07:37:45.244Z,100903.02
2018-10-11T07:40:30.202Z,100907.42
2018-10-11T07:42:59.289Z,100910.76
2018-10-11T07:45:31.776Z,100921.13
2018-10-11T07:48:00.723Z,100920.91
2018-10-11T07:50:52.349Z,100922.33
2018-10-11T07:53:21.277Z,100915.91
2018-10-11T07:55:51.113Z,100918.66
2018-10-11T07:58:22.141Z,100920.63
2018-10-11T08:00:51.041Z,100916.82
2018-10-11T08:03:20.068Z,100917.70
2018-10-11T08:05:48.951Z,100922.09
2018-10-11T08:08:18.030Z,100926.72
2018-10-11T08:10:46.988Z,100915.08
2018-10-11T08:13:25.786Z,100918.42
2018-10-11T08:16:07.993Z,100922.52
2018-10-11T08:19:01.641Z,100931.86
2018-10-11T08:21:47.112Z,100931.89
2018-10-11T08:24:19.937Z,100922.13
2018-10-11T08:29:55.097Z,100923.78
2018-10-11T08:32:24.056Z,100932.55
2018-10-11T08:34:52.981Z,100929.03
2018-10-11T08:37:26.762Z,100935.31
2018-10-11T08:40:13.672Z,100925.02
2018-10-11T08:42:42.659Z,100937.86
2018-10-11T08:45:11.583Z,100935.37
2018-10-11T08:47:40.473Z,100930.52
2018-10-11T08:50:09.375Z,100935.98
2018-10-11T08:52:38.293Z,100937.36
2018-10-11T08:55:07.239Z,100936.56
2018-10-11T08:57:36.142Z,100937.97
2018-10-11T09:00:22.329Z,100935.27
2018-10-11T09:02:55.237Z,100930.98
2018-10-11T09:05:33.661Z,100931.80
2018-10-11T09:08:07.431Z,100932.36
2018-10-11T09:10:38.449Z,100929.35
2018-10-11T09:18:58.557Z,100930.47
2018-10-11T09:21:39.450Z,100938.14
2018-10-11T09:24:08.413Z,100935.72
2018-10-11T09:26:39.798Z,100929.72
2018-10-11T09:29:11.290Z,100922.92
2018-10-11T09:31:48.798Z,100920.20
2018-10-11T09:34:36.856Z,100925.94
2018-10-11T09:37:13.208Z,100915.08
2018-10-11T09:39:42.860Z,100915.88
2018-10-11T09:42:16.616Z,100915.36
2018-10-11T09:44:55.702Z,100916.44
2018-10-11T09:47:25.220Z,100917.80
2018-10-11T09:50:10.324Z,100912.63
2018-10-11T09:52:44.399Z,100911.53
2018-10-11T09:55:13.902Z,100912.63
2018-10-11T09:57:51.276Z,100909.05
2018-10-11T10:00:26.828Z,100908.52
2018-10-11T10:03:02.026Z,100909.32
2018-10-11T10:05:33.414Z,100909.86
2018-10-11T10:08:04.073Z,100899.47
2018-10-11T10:10:38.882Z,100908.78
2018-10-11T10:13:16.130Z,100908.76
2018-10-11T10:15:51.164Z,100902.19
2018-10-11T10:18:33.706Z,100904.08
2018-10-11T10:21:08.808Z,100899.67
2018-10-11T10:23:47.684Z,100902.40
2018-10-11T10:26:19.164Z,100900.50
2018-10-11T10:28:55.229Z,100893.12
2018-10-11T10:31:34.281Z,100895.56
2018-10-11T10:34:15.261Z,100892.59
2018-10-11T10:36:46.282Z,100887.13
2018-10-11T10:39:15.270Z,100884.61
2018-10-11T10:41:54.052Z,100887.59
2018-10-11T10:44:24.008Z,100882.86
2018-10-11T10:47:03.687Z,100873.33
2018-10-11T10:49:32.759Z,100874.91
2018-10-11T10:52:18.871Z,100879.38
2018-10-11T10:54:52.658Z,100873.41
2018-10-11T10:57:29.358Z,100872.48
2018-10-11T10:59:59.086Z,100862.62
2018-10-11T11:02:32.537Z,100863.16
2018-10-11T11:05:03.237Z,100855.48
2018-10-11T11:07:48.318Z,100858.25
2018-10-11T11:10:37.846Z,100857.13
2018-10-11T11:13:25.609Z,100857.31
2018-10-11T11:15:55.295Z,100851.27
2018-10-11T11:18:25.819Z,100843.28
2018-10-11T11:21:00.587Z,100843.48
2018-10-11T11:23:31.037Z,100840.92
2018-10-11T11:26:05.696Z,100839.88
2018-10-11T11:28:45.506Z,100836.63
2018-10-11T11:31:28.909Z,100830.09
2018-10-11T11:34:11.313Z,100829.92
2018-10-11T11:36:58.462Z,100835.62
2018-10-11T11:39:31.138Z,100831.47
2018-10-11T11:42:02.069Z,100826.84
2018-10-11T11:44:31.390Z,100829.17
2018-10-11T11:47:00.304Z,100830.49
2018-10-11T11:49:37.344Z,100836.28
2018-10-11T11:52:14.151Z,100838.01
2018-10-11T11:55:07.821Z,100838.55
2018-10-11T11:57:37.811Z,100829.23
2018-10-11T12:00:18.171Z,100832.64
2018-10-11T12:02:54.322Z,100828.53
2018-10-11T12:05:27.155Z,100824.16
2018-10-11T12:08:00.035Z,100817.11
2018-10-11T12:10:36.279Z,100818.33
2018-10-11T12:13:12.074Z,100819.98
2018-10-11T12:15:42.337Z,100822.34
2018-10-11T12:18:11.619Z,100822.38
2018-10-11T12:20:43.113Z,100823.44
2018-10-11T12:23:12.885Z,100827.37
2018-10-11T12:25:43.867Z,100827.08
2018-10-11T12:28:14.804Z,100823.63
2018-10-11T12:31:07.890Z,100818.84
2018-10-11T12:33:36.795Z,100819.25
2018-10-11T12:36:13.746Z,100819.02
2018-10-11T12:38:46.372Z,100817.38
2018-10-11T12:41:18.388Z,100817.58
2018-10-11T12:43:50.958Z,100814.00
2018-10-11T12:46:24.797Z,100816.42
2018-10-11T12:49:14.428Z,100824.10
2018-10-11T12:51:56.945Z,100821.70
2018-10-11T12:54:36.159Z,100816.82
2018-10-11T12:57:22.920Z,100816.55
2018-10-11T12:59:56.989Z,100817.39
2018-10-11T13:02:39.024Z,100820.06
2018-10-11T13:05:08.964Z,100822.80
2018-10-11T13:07:42.284Z,100819.63
2018-10-11T13:10:23.645Z,100832.85
2018-10-11T13:13:01.476Z,100828.17
2018-10-11T13:15:29.963Z,100830.14
2018-10-11T13:18:17.030Z,100828.47
2018-10-11T13:21:00.400Z,100835.59
2018-10-11T13:23:33.214Z,100833.75
2018-10-11T13:26:21.798Z,100833.51
2018-10-11T13:28:58.418Z,100838.84
2018-10-11T13:31:34.719Z,100836.20
2018-10-11T13:34:08.402Z,100828.59
2018-10-11T13:36:39.700Z,100820.62
2018-10-11T13:39:13.149Z,100836.45
2018-10-11T13:41:50.589Z,100820.80
2018-10-11T13:44:31.265Z,100823.21
2018-10-11T13:47:18.419Z,100828.87
2018-10-11T13:49:54.412Z,100830.59
2018-10-11T13:55:16.660Z,100823.72
2018-10-11T13:57:45.652Z,100831.30
2018-10-11T14:00:14.584Z,100829.22
2018-10-11T14:02:49.613Z,100827.62
2018-10-11T14:05:18.581Z,100830.63
2018-10-11T14:07:48.608Z,100824.55
2018-10-11T14:10:22.376Z,100822.38
2018-10-11T14:12:53.285Z,100825.95
2018-10-11T14:15:26.068Z,100820.17
2018-10-11T14:18:06.214Z,100819.87
2018-10-11T14:20:32.967Z,100817.97
2018-10-11T14:23:07.229Z,100811.33
2018-10-11T14:25:50.477Z,100812.50
2018-10-11T14:28:20.565Z,100810.89
2018-10-11T14:30:55.573Z,100804.88
2018-10-11T14:33:25.545Z,100804.34
2018-10-11T14:35:57.907Z,100807.52
2018-10-11T14:38:26.818Z,100802.81
2018-10-11T14:40:55.778Z,100804.22
2018-10-11T14:43:24.757Z,100802.45
2018-10-11T14:45:55.674Z,100793.73
2018-10-11T14:48:24.661Z,100798.91
2018-10-11T14:51:11.293Z,100792.09
2018-10-11T14:56:42.151Z,100796.44
2018-10-11T14:59:13.568Z,100792.27
2018-10-11T15:01:49.678Z,100795.74
2018-10-11T15:04:25.557Z,100790.89
2018-10-11T15:06:58.596Z,100796.30
2018-10-11T15:09:30.313Z,100796.00
2018-10-11T15:12:13.821Z,100791.34
2018-10-11T15:14:48.425Z,100793.36
2018-10-11T15:17:25.700Z,100788.45
2018-10-11T15:19:58.233Z,100788.25
2018-10-11T15:22:31.768Z,100786.58
2018-10-11T15:25:13.523Z,100786.48
2018-10-11T15:27:43.627Z,100782.52
2018-10-11T15:33:06.022Z,100781.00
2018-10-11T15:35:43.013Z,100780.17
2018-10-11T15:38:18.739Z,100779.91
2018-10-11T15:40:51.073Z,100780.11
2018-10-11T15:43:20.005Z,100773.95
2018-10-11T15:45:54.684Z,100778.92
2018-10-11T15:48:23.614Z,100780.30
2018-10-11T15:51:11.463Z,100775.45
2018-10-11T15:53:46.402Z,100780.92
2018-10-11T15:59:16.644Z,100784.64
2018-10-11T16:01:46.593Z,100779.09
2018-10-11T16:04:20.689Z,100784.28
2018-10-11T16:07:09.732Z,100781.51
2018-10-11T16:09:47.136Z,100788.05
2018-10-11T16:12:17.111Z,100789.45
2018-10-11T16:14:46.027Z,100790.59
2018-10-11T16:17:16.002Z,100797.38
2018-10-11T16:19:51.133Z,100789.25
2018-10-11T16:22:21.357Z,100795.00
2018-10-11T16:24:58.340Z,100794.55
2018-10-11T16:27:31.693Z,100794.05
2018-10-11T16:30:01.644Z,100796.48
2018-10-11T16:32:31.642Z,100800.62
2018-10-11T16:35:06.185Z,100802.91
2018-10-11T16:37:42.643Z,100801.06
2018-10-11T16:40:15.871Z,100800.07
2018-10-11T16:42:49.641Z,100808.55
2018-10-11T16:45:35.586Z,100808.25
2018-10-11T16:51:01.700Z,100816.30
2018-10-11T16:53:45.569Z,100821.55
2018-10-11T16:56:15.524Z,100822.21
2018-10-11T16:58:45.601Z,100820.59
2018-10-11T17:01:15.585Z,100829.67
2018-10-11T17:03:44.557Z,100839.27
2018-10-11T17:06:15.472Z,100835.16
2018-10-11T17:08:44.468Z,100841.24
2018-10-11T17:11:15.425Z,100841.57
2018-10-11T17:13:54.958Z,100847.89
2018-10-11T17:16:37.221Z,100848.22
2018-10-11T17:19:07.205Z,100849.89
2018-10-11T17:21:43.922Z,100856.18
2018-10-11T17:24:12.888Z,100856.23
2018-10-11T17:27:00.361Z,100851.66
2018-10-11T17:29:36.866Z,100854.93
2018-10-11T17:32:07.761Z,100859.08
2018-10-11T17:34:37.172Z,100864.28
2018-10-11T17:37:08.278Z,100867.02
2018-10-11T17:39:37.307Z,100869.51
2018-10-11T17:42:07.323Z,100872.81
2018-10-11T17:44:42.120Z,100864.65
2018-10-11T17:47:13.046Z,100867.13
2018-10-11T17:49:42.145Z,100875.34
2018-10-11T17:52:23.344Z,100883.27
2018-10-11T17:55:08.754Z,100886.84
2018-10-11T17:57:44.048Z,100893.40
2018-10-11T18:00:13.067Z,100900.50
2018-10-11T18:02:41.991Z,100901.03
2018-10-11T18:05:11.001Z,100900.51
2018-10-11T18:07:50.325Z,100898.33
2018-10-11T18:13:25.076Z,100900.55
2018-10-11T18:16:03.401Z,100897.27
2018-10-11T18:18:34.355Z,100894.01
2018-10-11T18:21:03.331Z,100893.17
2018-10-11T18:23:44.548Z,100902.75
2018-10-11T18:26:17.189Z,100903.30
2018-10-11T18:28:46.240Z,100904.11
2018-10-11T18:31:21.991Z,100901.39
2018-10-11T18:33:52.756Z,100900.03
2018-10-11T18:36:26.422Z,100902.48
2018-10-11T18:38:56.152Z,100910.67
2018-10-11T18:41:30.580Z,100913.12
2018-10-11T18:44:03.865Z,100905.21
2018-10-11T18:46:34.334Z,100914.48
2018-10-11T18:49:09.678Z,100914.23
2018-10-11T18:51:38.649Z,100920.78
2018-10-11T18:54:07.804Z,100925.16
2018-10-11T18:56:36.759Z,100925.40
2018-10-11T18:59:06.817Z,100930.33
2018-10-11T19:01:39.843Z,100927.89
2018-10-11T19:04:15.294Z,100921.06
2018-10-11T19:06:46.231Z,100924.88
2018-10-11T19:09:15.249Z,100925.16
2018-10-11T19:11:47.567Z,100922.69
2018-10-11T19:14:17.484Z,100925.17
2018-10-11T19:16:46.513Z,100922.97
2018-10-11T19:19:18.957Z,100924.89
2018-10-11T19:22:01.815Z,100933.07
2018-10-11T19:24:32.879Z,100931.16
2018-10-11T19:27:04.010Z,100937.17
2018-10-11T19:29:36.671Z,100927.06
2018-10-11T19:35:06.862Z,100922.70
2018-10-11T19:37:53.755Z,100921.89
2018-10-11T19:40:26.602Z,100919.16
2018-10-11T19:42:59.798Z,100918.36
2018-10-11T19:45:29.489Z,100915.63
2018-10-11T19:48:03.601Z,100913.70
2018-10-11T19:50:37.284Z,100913.43
2018-10-11T19:53:07.282Z,100914.80
2018-10-11T19:55:41.973Z,100918.61
2018-10-11T19:58:12.128Z,100919.73
2018-10-11T20:00:54.093Z,100925.42
2018-10-11T20:03:27.979Z,100925.42
2018-10-11T20:06:00.106Z,100933.61
2018-10-11T20:08:52.036Z,100931.72
2018-10-11T20:11:22.397Z,100933.61
2018-10-11T20:14:03.461Z,100936.09
2018-10-11T20:16:38.035Z,100939.63
2018-10-11T20:19:24.599Z,100944.80
2018-10-11T20:21:59.051Z,100940.98
2018-10-11T20:24:28.220Z,100939.63
2018-10-11T20:26:58.159Z,100934.17
2018-10-11T20:29:30.406Z,100924.91
2018-10-11T20:32:00.360Z,100926.55
2018-10-11T20:34:31.441Z,100931.72
2018-10-11T20:37:00.532Z,100930.08
2018-10-11T20:39:35.095Z,100935.53
2018-10-11T20:42:05.998Z,100931.16
2018-10-11T20:44:35.927Z,100929.00
2018-10-11T20:47:05.589Z,100923.81
2018-10-11T20:49:37.034Z,100924.91
2018-10-11T20:52:06.113Z,100925.70
2018-10-11T20:54:36.123Z,100934.45
2018-10-11T20:57:06.264Z,100945.08
2018-10-11T20:59:35.323Z,100931.44
2018-10-11T21:02:17.508Z,100936.34
2018-10-11T21:04:58.880Z,100930.08
2018-10-11T21:07:34.654Z,100933.09
2018-10-11T21:10:09.728Z,100944.27
2018-10-11T21:12:50.745Z,100940.71
2018-10-11T21:15:19.653Z,100942.91
2018-10-11T21:17:53.398Z,100953.22
2018-10-11T21:20:22.552Z,100948.85
2018-10-11T21:22:57.705Z,100957.31
2018-10-11T21:25:32.673Z,100949.41
2018-10-11T21:28:07.070Z,100956.22
2018-10-11T21:30:40.822Z,100949.13
2018-10-11T21:33:09.829Z,100950.20
2018-10-11T21:35:44.714Z,100947.48
2018-10-11T21:38:17.781Z,100946.11
2018-10-11T21:43:42.054Z,100944.19
2018-10-11T21:46:13.103Z,100942.81
2018-10-11T21:48:52.565Z,100933.03
2018-10-11T21:51:40.941Z,100924.01
2018-10-11T21:54:11.095Z,100921.28
2018-10-11T21:56:40.249Z,100916.11
2018-10-11T21:59:22.206Z,100916.91
2018-10-11T22:02:03.758Z,100910.94
2018-10-11T22:04:37.221Z,100907.38
2018-10-11T22:07:10.488Z,100913.10
2018-10-11T22:09:49.393Z,100905.20
2018-10-11T22:12:25.864Z,100912.83
2018-10-11T22:15:07.271Z,100910.66
2018-10-11T22:17:36.249Z,100913.94
2018-10-11T22:20:10.714Z,100915.30
2018-10-11T22:22:39.732Z,100917.73
2018-10-11T22:25:08.931Z,100918.81
2018-10-11T22:27:43.717Z,100925.63
2018-10-11T22:30:12.713Z,100925.90
2018-10-11T22:32:41.708Z,100937.89
2018-10-11T22:35:10.672Z,100940.89
2018-10-11T22:37:41.707Z,100947.70
2018-10-11T22:40:17.097Z,100946.88
2018-10-11T22:42:47.114Z,100959.13
2018-10-11T22:45:17.135Z,100963.22
2018-10-11T22:47:46.165Z,100974.95
2018-10-11T22:50:15.237Z,100977.11
2018-10-11T22:52:50.187Z,100985.28
2018-10-11T22:58:14.708Z,100991.27
2018-10-11T23:00:43.790Z,100991.53
2018-10-11T23:03:18.358Z,100999.14
2018-10-11T23:05:47.302Z,101004.84
2018-10-11T23:08:16.292Z,101005.37
2018-10-11T23:10:45.279Z,101008.08
2018-10-11T23:13:14.185Z,101012.70
2018-10-11T23:15:43.431Z,101016.49
2018-10-11T23:18:14.342Z,101019.22
2018-10-11T23:20:43.388Z,101026.86
2018-10-11T23:23:24.810Z,101025.98
2018-10-11T23:25:53.729Z,101027.90
2018-10-11T23:28:22.699Z,101033.34
2018-10-11T23:30:51.832Z,101036.80
2018-10-11T23:33:20.809Z,101045.25
2018-10-11T23:35:49.711Z,101044.41
2018-10-11T23:38:18.619Z,101046.05
2018-10-11T23:40:51.584Z,101047.11
2018-10-11T23:43:20.562Z,101045.73
2018-10-11T23:46:07.997Z,101039.75
2018-10-11T23:48:37.370Z,101046.48
2018-10-11T23:51:06.869Z,101033.95
2018-10-11T23:53:35.754Z,101032.02
2018-10-11T23:56:04.747Z,101031.25
2018-10-11T23:58:33.635Z,101019.82
